createdAt,value
2023-04-16T00:01:47.721Z,2.78
2023-04-16T00:04:14.559Z,1.90
2023-04-16T00:06:41.268Z,1.95
2023-04-16T00:09:08.162Z,2.08
2023-04-16T00:11:34.927Z,2.13
2023-04-16T00:14:01.692Z,2.15
2023-04-16T00:16:28.513Z,2.40
2023-04-16T00:18:55.108Z,1.73
2023-04-16T00:21:21.792Z,2.22
2023-04-16T00:23:48.451Z,1.83
2023-04-16T00:26:15.099Z,2.03
2023-04-16T00:28:41.765Z,2.55
2023-04-16T00:31:08.438Z,2.25
2023-04-16T00:33:35.130Z,2.10
2023-04-16T00:36:02.053Z,2.33
2023-04-16T00:38:30.417Z,1.98
2023-04-16T00:40:59.948Z,1.85
2023-04-16T00:43:27.217Z,1.75
2023-04-16T00:45:56.658Z,2.13
2023-04-16T00:48:24.777Z,1.98
2023-04-16T00:50:51.527Z,1.88
2023-04-16T00:53:18.313Z,2.03
2023-04-16T00:55:45.955Z,1.85
2023-04-16T00:58:12.784Z,2.10
2023-04-16T01:00:39.436Z,1.77
2023-04-16T01:03:06.322Z,1.88
2023-04-16T01:05:33.313Z,2.30
2023-04-16T01:08:01.191Z,2.58
2023-04-16T01:10:27.875Z,2.78
2023-04-16T01:12:54.564Z,2.30
2023-04-16T01:15:21.221Z,2.47
2023-04-16T01:17:48.304Z,2.17
2023-04-16T01:20:14.995Z,2.42
2023-04-16T01:22:41.631Z,2.28
2023-04-16T01:25:08.428Z,2.08
2023-04-16T01:27:35.068Z,2.90
2023-04-16T01:30:01.735Z,2.75
2023-04-16T01:32:31.445Z,2.78
2023-04-16T01:34:58.120Z,2.78
2023-04-16T01:37:24.832Z,3.63
2023-04-16T01:39:51.517Z,3.00
2023-04-16T01:42:18.119Z,3.22
2023-04-16T01:44:46.827Z,2.65
2023-04-16T01:47:13.463Z,3.03
2023-04-16T01:49:40.691Z,2.85
2023-04-16T01:52:08.505Z,3.25
2023-04-16T01:54:35.221Z,2.90
2023-04-16T01:57:01.942Z,2.95
2023-04-16T01:59:28.621Z,3.33
2023-04-16T02:01:55.702Z,3.22
2023-04-16T02:04:22.385Z,3.17
2023-04-16T02:06:48.955Z,3.63
2023-04-16T02:09:15.652Z,3.90
2023-04-16T02:11:42.307Z,3.83
2023-04-16T02:14:09.048Z,3.90
2023-04-16T02:16:35.781Z,4.18
2023-04-16T02:19:03.331Z,3.60
2023-04-16T02:21:30.057Z,3.40
2023-04-16T02:23:57.473Z,3.50
2023-04-16T02:26:24.171Z,3.92
2023-04-16T02:28:51.036Z,4.25
2023-04-16T02:31:19.584Z,4.13
2023-04-16T02:33:46.362Z,3.40
2023-04-16T02:36:13.036Z,3.97
2023-04-16T02:38:39.746Z,4.15
2023-04-16T02:41:06.444Z,3.90
2023-04-16T02:43:33.076Z,4.43
2023-04-16T02:45:59.739Z,3.65
2023-04-16T02:48:26.490Z,4.05
2023-04-16T02:50:53.066Z,4.32
2023-04-16T02:53:19.662Z,4.00
2023-04-16T02:55:53.794Z,3.72
2023-04-16T02:58:21.637Z,4.45
2023-04-16T03:00:48.391Z,3.97
2023-04-16T03:03:15.145Z,4.28
2023-04-16T03:05:42.170Z,4.20
2023-04-16T03:08:09.122Z,4.20
2023-04-16T03:10:36.237Z,4.60
2023-04-16T03:13:03.553Z,4.13
2023-04-16T03:15:30.988Z,4.07
2023-04-16T03:17:57.975Z,4.80
2023-04-16T03:20:24.658Z,4.13
2023-04-16T03:22:54.541Z,4.55
2023-04-16T03:25:21.174Z,4.25
2023-04-16T03:27:47.834Z,3.88
2023-04-16T03:30:14.873Z,4.43
2023-04-16T03:32:41.930Z,4.28
2023-04-16T03:35:09.492Z,4.78
2023-04-16T03:37:36.278Z,4.45
2023-04-16T03:40:03.973Z,4.97
2023-04-16T03:42:30.728Z,4.90
2023-04-16T03:44:57.422Z,4.60
2023-04-16T03:47:24.183Z,4.00
2023-04-16T03:49:50.970Z,4.57
2023-04-16T03:52:17.603Z,4.78
2023-04-16T03:54:44.202Z,4.82
2023-04-16T03:57:10.876Z,4.63
2023-04-16T03:59:37.499Z,5.25
2023-04-16T04:02:04.228Z,6.43
2023-04-16T04:04:31.239Z,5.60
2023-04-16T04:06:57.964Z,5.50
2023-04-16T04:09:24.609Z,6.03
2023-04-16T04:11:51.270Z,6.63
2023-04-16T04:14:17.904Z,5.45
2023-04-16T04:16:44.921Z,6.45
2023-04-16T04:19:13.463Z,6.72
2023-04-16T04:21:40.347Z,6.28
2023-04-16T04:24:06.953Z,6.47
2023-04-16T04:26:33.633Z,7.72
2023-04-16T04:29:00.427Z,6.82
2023-04-16T04:31:27.206Z,6.43
2023-04-16T04:33:53.912Z,6.47
2023-04-16T04:36:20.552Z,6.82
2023-04-16T04:38:47.338Z,8.50
2023-04-16T04:41:13.985Z,7.55
2023-04-16T04:43:40.612Z,8.13
2023-04-16T04:46:07.279Z,8.32
2023-04-16T04:48:33.924Z,7.72
2023-04-16T04:51:02.440Z,8.43
2023-04-16T04:53:30.907Z,8.57
2023-04-16T04:56:08.945Z,8.40
2023-04-16T04:58:38.684Z,9.17
2023-04-16T05:01:05.949Z,8.77
2023-04-16T05:03:32.852Z,8.95
2023-04-16T05:05:59.602Z,8.93
2023-04-16T05:08:26.193Z,10.38
2023-04-16T05:10:52.824Z,10.13
2023-04-16T05:13:19.450Z,9.13
2023-04-16T05:15:46.134Z,9.73
2023-04-16T05:18:12.794Z,9.60
2023-04-16T05:20:39.390Z,10.35
2023-04-16T05:23:06.124Z,9.75
2023-04-16T05:25:32.868Z,8.95
2023-04-16T05:27:59.567Z,9.70
2023-04-16T05:30:26.200Z,9.02
2023-04-16T05:32:52.847Z,9.43
2023-04-16T05:35:19.552Z,10.38
2023-04-16T05:37:46.184Z,10.35
2023-04-16T05:40:14.052Z,10.80
2023-04-16T05:42:40.867Z,10.25
2023-04-16T05:45:08.150Z,9.65
2023-04-16T05:47:34.851Z,10.75
2023-04-16T05:50:01.532Z,10.85
2023-04-16T05:52:28.228Z,10.48
2023-04-16T05:54:55.114Z,9.82
2023-04-16T05:57:21.733Z,10.82
2023-04-16T05:59:48.384Z,11.27
2023-04-16T06:02:15.172Z,9.13
2023-04-16T06:04:41.910Z,9.07
2023-04-16T06:07:08.646Z,9.18
2023-04-16T06:09:35.961Z,10.25
2023-04-16T06:12:02.724Z,10.05
2023-04-16T06:14:29.383Z,9.10
2023-04-16T06:16:56.354Z,9.45
2023-04-16T06:19:23.037Z,10.40
2023-04-16T06:21:49.955Z,9.52
2023-04-16T06:24:18.358Z,9.43
2023-04-16T06:26:45.023Z,9.15
2023-04-16T06:29:11.965Z,9.40
2023-04-16T06:31:38.705Z,9.93
2023-04-16T06:34:05.306Z,9.40
2023-04-16T06:36:31.977Z,9.90
2023-04-16T06:38:58.654Z,9.18
2023-04-16T06:41:26.673Z,8.60
2023-04-16T06:43:53.350Z,8.90
2023-04-16T06:46:20.058Z,8.82
2023-04-16T06:48:47.027Z,9.75
2023-04-16T06:51:13.698Z,9.65
2023-04-16T06:53:40.498Z,9.68
2023-04-16T06:56:07.471Z,8.73
2023-04-16T06:58:34.193Z,8.48
2023-04-16T07:01:02.544Z,9.45
2023-04-16T07:03:29.356Z,9.38
2023-04-16T07:05:56.764Z,8.60
2023-04-16T07:08:23.417Z,9.77
2023-04-16T07:10:50.175Z,9.63
2023-04-16T07:13:18.498Z,8.30
2023-04-16T07:15:45.334Z,9.57
2023-04-16T07:18:11.978Z,9.90
2023-04-16T07:20:38.711Z,10.48
2023-04-16T07:23:05.373Z,10.43
2023-04-16T07:25:32.050Z,10.35
2023-04-16T07:27:58.780Z,9.55
2023-04-16T07:30:25.661Z,10.15
2023-04-16T07:32:52.359Z,10.00
2023-04-16T07:35:19.040Z,9.85
2023-04-16T07:37:45.676Z,9.25
2023-04-16T07:40:12.514Z,10.23
2023-04-16T07:42:39.267Z,8.65
2023-04-16T07:45:06.500Z,10.13
2023-04-16T07:47:33.223Z,8.77
2023-04-16T07:49:59.890Z,8.70
2023-04-16T07:52:26.761Z,8.98
2023-04-16T07:54:53.518Z,7.88
2023-04-16T07:57:21.092Z,9.05
2023-04-16T07:59:47.727Z,8.68
2023-04-16T08:02:16.461Z,8.80
2023-04-16T08:04:43.924Z,7.53
2023-04-16T08:07:10.796Z,7.80
2023-04-16T08:09:51.377Z,7.80
2023-04-16T08:12:18.198Z,8.55
2023-04-16T08:14:45.877Z,7.05
2023-04-16T08:17:13.230Z,8.15
2023-04-16T08:19:39.873Z,7.50
2023-04-16T08:22:06.702Z,7.30
2023-04-16T08:24:33.536Z,7.53
2023-04-16T08:27:08.134Z,7.72
2023-04-16T08:29:44.497Z,6.72
2023-04-16T08:32:11.559Z,7.50
2023-04-16T08:34:38.243Z,7.03
2023-04-16T08:37:04.919Z,6.97
2023-04-16T08:39:31.666Z,6.75
2023-04-16T08:41:58.978Z,6.20
2023-04-16T08:44:33.668Z,6.45
2023-04-16T08:47:01.028Z,5.85
2023-04-16T08:49:28.128Z,5.93
2023-04-16T08:51:56.317Z,5.63
2023-04-16T08:54:37.637Z,6.00
2023-04-16T08:57:06.742Z,5.78
2023-04-16T08:59:34.028Z,5.88
2023-04-16T09:02:01.870Z,6.05
2023-04-16T09:04:29.425Z,5.47
2023-04-16T09:06:57.394Z,5.65
2023-04-16T09:09:26.467Z,5.43
2023-04-16T09:11:53.743Z,5.38
2023-04-16T09:14:20.946Z,5.00
2023-04-16T09:16:48.340Z,5.30
2023-04-16T09:19:15.684Z,5.05
2023-04-16T09:21:45.572Z,4.57
2023-04-16T09:24:12.317Z,4.25
2023-04-16T09:26:39.020Z,4.53
2023-04-16T09:29:05.653Z,4.43
2023-04-16T09:31:32.410Z,4.35
2023-04-16T09:34:03.389Z,3.97
2023-04-16T09:36:31.221Z,4.33
2023-04-16T09:38:58.298Z,4.50
2023-04-16T09:41:30.318Z,4.10
2023-04-16T09:44:04.434Z,4.10
2023-04-16T09:46:34.364Z,4.40
2023-04-16T09:49:13.469Z,4.22
2023-04-16T09:51:45.095Z,3.85
2023-04-16T09:54:12.166Z,3.85
2023-04-16T09:56:43.181Z,4.28
2023-04-16T09:59:20.905Z,4.10
2023-04-16T10:01:49.516Z,4.05
2023-04-16T10:04:17.160Z,4.60
2023-04-16T10:06:44.124Z,4.03
2023-04-16T10:09:11.148Z,4.00
2023-04-16T10:11:38.219Z,4.32
2023-04-16T10:14:05.390Z,4.43
2023-04-16T10:16:33.021Z,4.50
2023-04-16T10:18:59.992Z,4.93
2023-04-16T10:21:33.841Z,4.93
2023-04-16T10:24:01.733Z,5.10
2023-04-16T10:26:30.539Z,5.35
2023-04-16T10:28:58.839Z,5.50
2023-04-16T10:31:26.979Z,5.60
2023-04-16T10:33:54.427Z,5.10
2023-04-16T10:36:26.423Z,5.70
2023-04-16T10:38:57.631Z,5.07
2023-04-16T10:41:26.642Z,6.57
2023-04-16T10:44:03.240Z,6.60
2023-04-16T10:46:40.956Z,6.50
2023-04-16T10:49:23.971Z,6.82
2023-04-16T10:51:58.389Z,7.68
2023-04-16T10:54:30.262Z,7.78
2023-04-16T10:59:25.751Z,6.25
2023-04-16T11:01:55.715Z,7.05
2023-04-16T11:04:25.384Z,6.90
2023-04-16T11:07:16.477Z,7.00
2023-04-16T11:10:05.276Z,6.50
2023-04-16T11:12:39.939Z,6.25
2023-04-16T11:15:19.169Z,6.20
2023-04-16T11:17:52.065Z,6.47
2023-04-16T11:20:23.919Z,5.88
2023-04-16T11:25:29.726Z,7.10
2023-04-16T11:27:58.895Z,7.53
2023-04-16T11:30:34.077Z,8.65
2023-04-16T11:33:09.540Z,7.80
2023-04-16T11:35:36.417Z,8.70
2023-04-16T11:38:03.027Z,8.02
2023-04-16T11:40:31.069Z,7.68
2023-04-16T11:43:12.854Z,8.10
2023-04-16T11:45:39.515Z,8.05
2023-04-16T11:48:06.804Z,7.95
2023-04-16T11:50:34.464Z,7.70
2023-04-16T11:53:05.419Z,7.22
2023-04-16T11:55:32.165Z,7.73
2023-04-16T11:58:12.131Z,7.85
2023-04-16T12:00:38.843Z,8.07
2023-04-16T12:03:05.650Z,8.05
2023-04-16T12:05:40.305Z,8.88
2023-04-16T12:08:09.535Z,8.40
2023-04-16T12:10:38.515Z,7.57
2023-04-16T12:13:15.006Z,8.45
2023-04-16T12:15:48.224Z,6.75
2023-04-16T12:18:18.565Z,7.00
2023-04-16T12:20:46.212Z,7.60
2023-04-16T12:23:33.375Z,7.57
2023-04-16T12:26:10.440Z,6.80
2023-04-16T12:28:38.492Z,7.32
2023-04-16T12:31:05.976Z,8.48
2023-04-16T12:33:32.824Z,9.00
2023-04-16T12:35:59.581Z,8.77
2023-04-16T12:38:27.158Z,8.30
2023-04-16T12:40:56.845Z,8.13
2023-04-16T12:43:24.036Z,8.20
2023-04-16T12:45:50.942Z,8.50
2023-04-16T12:48:17.591Z,7.97
2023-04-16T12:50:44.500Z,8.63
2023-04-16T12:53:11.766Z,8.63
2023-04-16T12:55:38.428Z,8.15
2023-04-16T12:58:05.086Z,7.57
2023-04-16T13:00:31.709Z,7.22
2023-04-16T13:02:58.541Z,7.28
2023-04-16T13:05:25.657Z,7.80
2023-04-16T13:07:52.408Z,8.48
2023-04-16T13:10:21.899Z,7.72
2023-04-16T13:12:48.954Z,7.88
2023-04-16T13:15:15.732Z,8.48
2023-04-16T13:17:42.374Z,7.80
2023-04-16T13:20:09.627Z,8.73
2023-04-16T13:22:36.385Z,8.80
2023-04-16T13:25:03.210Z,8.68
2023-04-16T13:27:32.001Z,9.32
2023-04-16T13:29:58.671Z,9.38
2023-04-16T13:32:25.462Z,9.13
2023-04-16T13:34:52.171Z,9.13
2023-04-16T13:37:18.820Z,9.30
2023-04-16T13:39:45.521Z,9.10
2023-04-16T13:42:12.119Z,9.95
2023-04-16T13:44:38.741Z,10.02
2023-04-16T13:47:05.504Z,8.80
2023-04-16T13:49:35.496Z,10.00
2023-04-16T13:52:02.502Z,10.02
2023-04-16T13:54:29.222Z,10.05
2023-04-16T13:56:56.011Z,9.65
2023-04-16T13:59:22.780Z,10.13
2023-04-16T14:01:49.538Z,9.82
2023-04-16T14:04:16.355Z,10.50
2023-04-16T14:06:43.068Z,10.57
2023-04-16T14:09:10.880Z,10.60
2023-04-16T14:11:37.869Z,9.40
2023-04-16T14:14:04.976Z,9.40
2023-04-16T14:16:31.659Z,10.18
2023-04-16T14:18:58.279Z,10.45
2023-04-16T14:21:24.953Z,13.98
2023-04-16T14:23:51.558Z,49.80
2023-04-16T14:26:18.203Z,15.88
2023-04-16T14:28:45.047Z,11.18
2023-04-16T14:31:11.695Z,8.85
2023-04-16T14:33:38.454Z,10.80
2023-04-16T14:36:05.596Z,10.40
2023-04-16T14:38:32.499Z,11.57
2023-04-16T14:41:00.342Z,9.60
2023-04-16T14:43:27.245Z,9.57
2023-04-16T14:45:53.948Z,9.95
2023-04-16T14:48:21.066Z,12.48
2023-04-16T14:50:47.696Z,13.85
2023-04-16T14:53:14.373Z,11.25
2023-04-16T14:55:41.037Z,8.70
2023-04-16T14:58:07.684Z,10.40
2023-04-16T15:00:37.523Z,9.20
2023-04-16T15:03:04.955Z,9.23
2023-04-16T15:05:31.960Z,9.43
2023-04-16T15:07:58.641Z,16.20
2023-04-16T15:10:25.244Z,9.07
2023-04-16T15:12:51.940Z,13.98
2023-04-16T15:15:18.655Z,14.38
2023-04-16T15:17:45.692Z,8.65
2023-04-16T15:20:12.988Z,9.85
2023-04-16T15:22:40.092Z,8.75
2023-04-16T15:25:07.202Z,9.45
2023-04-16T15:27:33.868Z,9.13
2023-04-16T15:30:00.848Z,11.82
2023-04-16T15:32:27.573Z,10.52
2023-04-16T15:34:54.220Z,11.18
2023-04-16T15:37:20.829Z,14.32
2023-04-16T15:39:47.578Z,10.02
2023-04-16T15:42:14.430Z,9.05
2023-04-16T15:44:41.139Z,8.63
2023-04-16T15:47:08.699Z,9.43
2023-04-16T15:49:36.019Z,12.02
2023-04-16T15:52:03.078Z,11.18
2023-04-16T15:54:30.944Z,10.05
2023-04-16T15:56:59.104Z,9.48
2023-04-16T15:59:29.049Z,10.15
2023-04-16T16:01:57.293Z,8.90
2023-04-16T16:04:26.242Z,9.80
2023-04-16T16:06:53.872Z,10.20
2023-04-16T16:09:25.753Z,10.25
2023-04-16T16:11:54.359Z,10.63
2023-04-16T16:14:22.008Z,9.88
2023-04-16T16:16:48.672Z,13.23
2023-04-16T16:19:15.320Z,21.75
2023-04-16T16:21:42.070Z,40.45
2023-04-16T16:24:09.406Z,33.38
2023-04-16T16:26:36.126Z,10.32
2023-04-16T16:29:02.836Z,9.95
2023-04-16T16:31:29.503Z,27.05
2023-04-16T16:33:56.214Z,40.10
2023-04-16T16:36:22.887Z,22.95
2023-04-16T16:38:49.540Z,24.27
2023-04-16T16:41:16.249Z,11.10
2023-04-16T16:43:43.097Z,10.45
2023-04-16T16:46:09.967Z,11.02
2023-04-16T16:48:36.725Z,10.07
2023-04-16T16:51:03.517Z,10.48
2023-04-16T16:53:30.115Z,13.52
2023-04-16T16:55:56.726Z,11.05
2023-04-16T16:58:23.328Z,10.77
2023-04-16T17:00:50.063Z,10.73
2023-04-16T17:03:17.044Z,11.18
2023-04-16T17:05:43.841Z,13.07
2023-04-16T17:08:10.637Z,14.13
2023-04-16T17:10:37.270Z,11.50
2023-04-16T17:13:03.866Z,12.15
2023-04-16T17:15:30.518Z,13.25
2023-04-16T17:17:57.285Z,12.80
2023-04-16T17:20:23.998Z,16.92
2023-04-16T17:22:51.213Z,14.40
2023-04-16T17:25:18.070Z,12.38
2023-04-16T17:27:44.718Z,11.23
2023-04-16T17:30:11.618Z,11.80
2023-04-16T17:32:38.279Z,12.32
2023-04-16T17:35:06.777Z,11.48
2023-04-16T17:37:33.502Z,13.23
2023-04-16T17:40:00.305Z,11.30
2023-04-16T17:42:26.963Z,13.00
2023-04-16T17:44:53.658Z,11.88
2023-04-16T17:47:20.444Z,12.70
2023-04-16T17:49:47.192Z,12.35
2023-04-16T17:52:13.881Z,12.82
2023-04-16T17:54:40.494Z,20.33
2023-04-16T17:57:07.136Z,20.67
2023-04-16T17:59:34.668Z,19.08
2023-04-16T18:02:01.438Z,30.75
2023-04-16T18:04:28.374Z,94.60
2023-04-16T18:06:55.199Z,27.15
2023-04-16T18:09:21.840Z,12.93
2023-04-16T18:11:48.570Z,16.70
2023-04-16T18:14:19.770Z,12.60
2023-04-16T18:16:47.822Z,13.82
2023-04-16T18:19:15.965Z,12.80
2023-04-16T18:21:43.281Z,17.10
2023-04-16T18:24:10.476Z,16.00
2023-04-16T18:26:37.665Z,12.45
2023-04-16T18:29:05.546Z,12.63
2023-04-16T18:31:32.416Z,29.25
2023-04-16T18:33:59.283Z,16.80
2023-04-16T18:36:26.806Z,40.25
2023-04-16T18:39:01.585Z,28.95
2023-04-16T18:41:29.981Z,29.45
2023-04-16T18:43:57.013Z,16.92
2023-04-16T18:46:23.727Z,14.50
2023-04-16T18:48:50.594Z,13.77
2023-04-16T18:51:17.271Z,13.90
2023-04-16T18:53:45.592Z,12.70
2023-04-16T18:56:12.833Z,14.73
2023-04-16T18:58:39.545Z,14.60
2023-04-16T19:01:10.905Z,15.55
2023-04-16T19:06:05.823Z,14.48
2023-04-16T19:08:32.481Z,14.02
2023-04-16T19:10:59.248Z,14.00
2023-04-16T19:13:26.015Z,19.52
2023-04-16T19:15:59.244Z,17.60
2023-04-16T19:18:26.448Z,15.30
2023-04-16T19:20:59.751Z,14.85
2023-04-16T19:23:26.901Z,14.40
2023-04-16T19:25:53.636Z,15.25
2023-04-16T19:28:20.280Z,14.95
2023-04-16T19:30:50.768Z,15.52
2023-04-16T19:33:17.954Z,16.05
2023-04-16T19:35:44.877Z,16.20
2023-04-16T19:38:11.543Z,16.85
2023-04-16T19:40:38.554Z,16.02
2023-04-16T19:43:05.317Z,16.60
2023-04-16T19:45:32.069Z,15.73
2023-04-16T19:47:58.965Z,16.38
2023-04-16T19:50:25.602Z,17.25
2023-04-16T19:52:52.309Z,19.50
2023-04-16T19:55:19.148Z,18.27
2023-04-16T19:57:47.937Z,16.33
2023-04-16T20:00:14.936Z,19.67
2023-04-16T20:02:41.739Z,20.02
2023-04-16T20:05:09.104Z,20.10
2023-04-16T20:07:35.788Z,18.40
2023-04-16T20:10:02.938Z,17.83
2023-04-16T20:12:29.682Z,17.95
2023-04-16T20:14:56.342Z,18.25
2023-04-16T20:17:23.178Z,18.42
2023-04-16T20:19:51.101Z,20.33
2023-04-16T20:22:18.634Z,18.25
2023-04-16T20:24:47.885Z,18.00
2023-04-16T20:27:15.277Z,17.38
2023-04-16T20:29:42.337Z,18.73
2023-04-16T20:32:09.067Z,16.85
2023-04-16T20:34:36.711Z,19.23
2023-04-16T20:37:03.985Z,18.25
2023-04-16T20:39:34.205Z,18.17
2023-04-16T20:42:04.004Z,18.75
2023-04-16T20:44:40.395Z,18.38
2023-04-16T20:47:08.095Z,18.25
2023-04-16T20:49:34.819Z,18.60
2023-04-16T20:52:02.521Z,19.63
2023-04-16T20:54:29.933Z,18.98
2023-04-16T20:56:57.376Z,19.42
2023-04-16T20:59:25.269Z,19.60
2023-04-16T21:01:52.225Z,20.92
2023-04-16T21:04:19.098Z,22.30
2023-04-16T21:06:46.086Z,20.15
2023-04-16T21:09:13.301Z,19.42
2023-04-16T21:11:40.345Z,18.10
2023-04-16T21:14:07.054Z,18.40
2023-04-16T21:16:33.730Z,18.27
2023-04-16T21:19:00.436Z,19.02
2023-04-16T21:21:27.500Z,17.92
2023-04-16T21:23:54.217Z,18.70
2023-04-16T21:26:21.259Z,18.25
2023-04-16T21:28:48.197Z,19.13
2023-04-16T21:31:15.028Z,19.35
2023-04-16T21:33:41.785Z,17.45
2023-04-16T21:36:08.541Z,17.20
2023-04-16T21:38:35.301Z,16.85
2023-04-16T21:41:02.100Z,17.63
2023-04-16T21:43:32.469Z,18.00
2023-04-16T21:45:59.720Z,18.77
2023-04-16T21:48:27.012Z,18.42
2023-04-16T21:50:58.192Z,18.38
2023-04-16T21:53:25.901Z,19.48
2023-04-16T21:55:52.492Z,17.27
2023-04-16T21:58:19.086Z,17.55
2023-04-16T22:00:47.143Z,18.33
2023-04-16T22:03:14.179Z,18.23
2023-04-16T22:05:41.027Z,17.65
2023-04-16T22:08:23.630Z,18.15
2023-04-16T22:10:51.163Z,16.92
2023-04-16T22:13:17.957Z,17.20
2023-04-16T22:15:44.593Z,18.25
2023-04-16T22:18:11.432Z,17.55
2023-04-16T22:20:38.903Z,17.98
2023-04-16T22:23:06.517Z,17.10
2023-04-16T22:25:33.251Z,16.85
2023-04-16T22:28:01.459Z,17.27
2023-04-16T22:30:28.202Z,16.73
2023-04-16T22:32:55.072Z,17.38
2023-04-16T22:35:21.814Z,19.50
2023-04-16T22:37:48.408Z,19.00
2023-04-16T22:40:15.758Z,18.60
2023-04-16T22:42:42.685Z,18.67
2023-04-16T22:45:09.744Z,19.42
2023-04-16T22:47:36.506Z,19.60
2023-04-16T22:50:03.330Z,18.30
2023-04-16T22:52:30.031Z,18.60
2023-04-16T22:54:56.749Z,19.08
2023-04-16T22:57:25.571Z,20.25
2023-04-16T22:59:53.124Z,19.35
2023-04-16T23:02:20.630Z,19.50
2023-04-16T23:04:47.913Z,19.73
2023-04-16T23:07:15.454Z,19.30
2023-04-16T23:09:42.510Z,20.08
2023-04-16T23:12:09.279Z,19.98
2023-04-16T23:14:36.962Z,19.50
2023-04-16T23:17:03.764Z,20.15
2023-04-16T23:19:31.606Z,19.77
2023-04-16T23:21:58.475Z,19.58
2023-04-16T23:24:25.169Z,18.77
2023-04-16T23:26:52.438Z,18.08
2023-04-16T23:29:19.952Z,18.05
2023-04-16T23:31:46.746Z,19.00
2023-04-16T23:34:13.497Z,19.92
2023-04-16T23:36:40.744Z,19.58
2023-04-16T23:39:07.358Z,18.15
2023-04-16T23:41:34.402Z,18.67
2023-04-16T23:44:01.053Z,19.17
2023-04-16T23:46:27.768Z,19.00
2023-04-16T23:48:55.284Z,20.33
2023-04-16T23:51:22.161Z,18.58
2023-04-16T23:53:48.874Z,19.27
2023-04-16T23:56:15.871Z,18.83
2023-04-16T23:58:42.579Z,19.17
